Ten Sleep, WY

4:49 PM MDT on August 27, 2014 (GMT -0600)
Johnson County | Change Station
CLOSE
Current Station
Airport
Location: Buffalo,
Elevation: 4967 ft
Nearby Weather Stations

Elev 4967 ft 44.38 °N, 106.72 °W | Updated 56 minutes ago

Clear
Clear
77 °F
Feels Like 77 °F
N
12
Wind Variable Wind from SSW

Today
High -- | Low -- °F
--% Chance of Precip.
Yesterday
High -- | Low -- °F
Precip. -- in
6:27 AM 7:54 PM
Waxing Crescent, 5% visible
Pressure 29.96 in
Visibility 10.0 miles
Clouds Clear
Dew Point 50 °F
Humidity 39%
Rainfall 0.00 in
Snow Depth Not available.
UV 6 out of 12
Pollen 8.30 out of 12
Air Quality Not available.
Flu Activity Not available.
METAR KBYG 272153Z AUTO 20010KT 10SM CLR 25/10 A3012 RMK AO2 SLP146 T02500100

More Conditions Fewer Conditions

Pressure 29.96 in
Visibility 10.0 miles
Clouds Clear
Dew Point 50 °F
Humidity 39%
Rainfall 0.00 in
Snow Depth Not available.
UV 6 out of 12
Pollen 8.30 out of 12
Air Quality Not available.
Flu Activity Not available.
METAR KBYG 272153Z AUTO 20010KT 10SM CLR 25/10 A3012 RMK AO2 SLP146 T02500100

More Conditions Fewer Conditions

10-Day Weather Forecast

Almanac

Astronomy

Aug. 27, 2014 Rise Set
Actual Time 6:27 AM MDT 7:54 PM MDT
Civil Twilight 5:57 AM MDT 8:24 PM MDT
Nautical Twilight 5:20 AM MDT 9:00 PM MDT
Astronomical Twilight 4:41 AM MDT 9:39 PM MDT
Moon 8:32 AM MDT 8:41 PM MDT
Length of Visible Light 14h 27m
Length of Day
13h 26m
Tomorrow will be 2m 53s shorter.
Waxing Crescent, 5% of the Moon is Illuminated
Today
Waxing Crescent
Sep 2
First Quarter
Sep 8
Full
Sep 15
Last Quarter
Sep 24
New

Today's Extremes

State Highs State Lows

Community

WunderPhotos

Upload Photos

1,747,805 photos uploaded!

Nearby

Snow Depth

Station Depth Elevation
Middle Powder 0 in 7760 ft
Bald Mountain 0 in 9380 ft
Owl Creek 0 in 8975 ft
Marquette 0 in 8760 ft
Kirwin 0 in 9550 ft

Earthquake Activity

City Distance Mag. Time & Date
No recent earthquake activity has been reported nearby.
Minimum magnitude displayed is 2.5.

Coastal Water Temperatures

Place Temperature
No Stations Reporting

Nearby Weather Stations